PWSweather.com
Personal Weather Stations
Station Observations
KVAGLENALL
West Henrico, Glen Allen, VA 23060-6503

West HenricoGlen Allen, VA 23060-6503

Lat: 37.6554, Lon: -77.5693

Elevation: 273

Station Type: Davis Vantage Pro II

Latest ConditionsUpdated 6:15:16 PM EDT Saturday, Aug 27, 2016
Currently Today's Max Today's Min Today's Average
Temperature 88.3°F31.3°C 92.9°F33.8°C 76.6°F24.8°C 84.9°F29.4°C
Dew Point 65.6°F18.7°C 76.9°F24.9°C 63.4°F17.4°C 72.0°F22.2°C
Winds Calm Calm 10.0 mph ESE16.1 kmh ESE - 2.2 mph 3.5 kmh
Wind Gusts 5.1 mph8.2 kmh 14.1 mph22.7 kmh - -
Humidity 47% 95% 38% 69%
Pressure 30.10 in1019.3 mb 30.16 in1021.3 mb 30.07 in1018.3 mb -
Hour Temp Dew Point Humidity Winds Wind Gusts Pressure Precip Precip Rate Daily Precip Total
06:15 PM 88.3°F31.3°C 65.6°F18.7°C 47% Calm Calm 5.1 mph8.2 kmh 30.10 in1019.3 mb 0.00 in0.0 mm 0.00 in0.0 mm 0.00 in0.0 mm
06:00 PM 88.9°F31.6°C 65.5°F18.6°C 46% Calm Calm 7.1 mph11.4 kmh 30.11 in1019.6 mb 0.00 in0.0 mm 0.00 in0.0 mm 0.00 in0.0 mm
05:45 PM 90.1°F32.3°C 65.9°F18.8°C 45% 2.0 mph E3.2 kmh E 6.1 mph9.8 kmh 30.12 in1020.0 mb 0.00 in0.0 mm 0.00 in0.0 mm 0.00 in0.0 mm
05:30 PM 90.5°F32.5°C 64.9°F18.3°C 43% 1.0 mph E1.6 kmh E 2.0 mph3.2 kmh 30.12 in1020.0 mb 0.00 in0.0 mm 0.00 in0.0 mm 0.00 in0.0 mm
05:15 PM 90.9°F32.7°C 66.0°F18.9°C 44% 1.0 mph ESE1.6 kmh ESE 10.1 mph16.3 kmh 30.11 in1019.6 mb 0.00 in0.0 mm 0.00 in0.0 mm 0.00 in0.0 mm
05:00 PM 91.3°F32.9°C 66.3°F19.1°C 44% 1.0 mph NE1.6 kmh NE 5.1 mph8.2 kmh 30.11 in1019.6 mb 0.00 in0.0 mm 0.00 in0.0 mm 0.00 in0.0 mm
04:45 PM 90.9°F32.7°C 66.0°F18.9°C 44% 7.0 mph ENE11.3 kmh ENE 12.1 mph19.5 kmh 30.11 in1019.6 mb 0.00 in0.0 mm 0.00 in0.0 mm 0.00 in0.0 mm
04:30 PM 90.9°F32.7°C 66.0°F18.9°C 44% 6.0 mph ESE9.7 kmh ESE 7.1 mph11.4 kmh 30.11 in1019.6 mb 0.00 in0.0 mm 0.00 in0.0 mm 0.00 in0.0 mm
04:15 PM 91.3°F32.9°C 65.0°F18.3°C 42% 7.0 mph NE11.3 kmh NE 11.1 mph17.9 kmh 30.12 in1020.0 mb 0.00 in0.0 mm 0.00 in0.0 mm 0.00 in0.0 mm
04:00 PM 92.0°F33.3°C 64.2°F17.9°C 40% 7.0 mph ENE11.3 kmh ENE 7.1 mph11.4 kmh 30.12 in1020.0 mb 0.00 in0.0 mm 0.00 in0.0 mm 0.00 in0.0 mm
03:45 PM 92.2°F33.4°C 64.4°F18.0°C 40% 4.0 mph ESE6.4 kmh ESE 13.1 mph21.1 kmh 30.13 in1020.3 mb 0.00 in0.0 mm 0.00 in0.0 mm 0.00 in0.0 mm
03:30 PM 92.9°F33.8°C 63.5°F17.5°C 38% 5.0 mph NNE8.0 kmh NNE 13.1 mph21.1 kmh 30.13 in1020.3 mb 0.00 in0.0 mm 0.00 in0.0 mm 0.00 in0.0 mm
03:15 PM 92.7°F33.7°C 63.4°F17.4°C 38% 3.0 mph E4.8 kmh E 5.1 mph8.2 kmh 30.13 in1020.3 mb 0.00 in0.0 mm 0.00 in0.0 mm 0.00 in0.0 mm
03:00 PM 92.7°F33.7°C 64.1°F17.8°C 39% 5.0 mph NNE8.0 kmh NNE 12.1 mph19.5 kmh 30.14 in1020.7 mb 0.00 in0.0 mm 0.00 in0.0 mm 0.00 in0.0 mm
02:45 PM 92.7°F33.7°C 65.5°F18.6°C 41% 7.0 mph E11.3 kmh E 11.1 mph17.9 kmh 30.14 in1020.7 mb 0.00 in0.0 mm 0.00 in0.0 mm 0.00 in0.0 mm
02:30 PM 92.7°F33.7°C 66.2°F19.0°C 42% 10.0 mph NNE16.1 kmh NNE 14.1 mph22.7 kmh 30.14 in1020.7 mb 0.00 in0.0 mm 0.00 in0.0 mm 0.00 in0.0 mm
02:15 PM 92.2°F33.4°C 67.1°F19.5°C 44% Calm Calm 6.1 mph9.8 kmh 30.15 in1021.0 mb 0.00 in0.0 mm 0.00 in0.0 mm 0.00 in0.0 mm
02:00 PM 92.4°F33.6°C 68.0°F20.0°C 45% 2.0 mph SE3.2 kmh SE 5.1 mph8.2 kmh 30.14 in1020.7 mb 0.00 in0.0 mm 0.00 in0.0 mm 0.00 in0.0 mm
01:45 PM 92.2°F33.4°C 70.9°F21.6°C 50% Calm Calm 2.0 mph3.2 kmh 30.14 in1020.7 mb 0.00 in0.0 mm 0.00 in0.0 mm 0.00 in0.0 mm
01:30 PM 92.0°F33.3°C 67.6°F19.8°C 45% Calm Calm 5.1 mph8.2 kmh 30.15 in1021.0 mb 0.00 in0.0 mm 0.00 in0.0 mm 0.00 in0.0 mm
01:15 PM 92.0°F33.3°C 68.2°F20.1°C 46% 2.0 mph N3.2 kmh N 4.0 mph6.4 kmh 30.14 in1020.7 mb 0.00 in0.0 mm 0.00 in0.0 mm 0.00 in0.0 mm
01:00 PM 91.6°F33.1°C 69.1°F20.6°C 48% 1.0 mph SE1.6 kmh SE 4.0 mph6.4 kmh 30.16 in1021.3 mb 0.00 in0.0 mm 0.00 in0.0 mm 0.00 in0.0 mm
12:45 PM 91.8°F33.2°C 68.1°F20.1°C 46% 5.0 mph ESE8.0 kmh ESE 11.1 mph17.9 kmh 30.15 in1021.0 mb 0.00 in0.0 mm 0.00 in0.0 mm 0.00 in0.0 mm
12:30 PM 91.3°F32.9°C 68.8°F20.4°C 48% 5.0 mph NNE8.0 kmh NNE 10.1 mph16.3 kmh 30.16 in1021.3 mb 0.00 in0.0 mm 0.00 in0.0 mm 0.00 in0.0 mm
12:15 PM 91.1°F32.8°C 69.3°F20.7°C 49% 3.0 mph E4.8 kmh E 11.1 mph17.9 kmh 30.16 in1021.3 mb 0.00 in0.0 mm 0.00 in0.0 mm 0.00 in0.0 mm
12:00 PM 90.9°F32.7°C 69.1°F20.6°C 49% 6.0 mph SE9.7 kmh SE 11.1 mph17.9 kmh 30.16 in1021.3 mb 0.00 in0.0 mm 0.00 in0.0 mm 0.00 in0.0 mm
11:45 AM 90.5°F32.5°C 69.3°F20.7°C 50% 6.0 mph SE9.7 kmh SE 9.1 mph14.6 kmh 30.16 in1021.3 mb 0.00 in0.0 mm 0.00 in0.0 mm 0.00 in0.0 mm
11:30 AM 90.1°F32.3°C 71.2°F21.8°C 54% Calm Calm -- 30.16 in1021.3 mb 0.00 in0.0 mm 0.00 in0.0 mm 0.00 in0.0 mm
11:15 AM 90.1°F32.3°C 71.2°F21.8°C 54% 2.0 mph ESE3.2 kmh ESE 9.1 mph14.6 kmh 30.15 in1021.0 mb 0.00 in0.0 mm 0.00 in0.0 mm 0.00 in0.0 mm
11:00 AM 89.6°F32.0°C 73.3°F22.9°C 59% 4.0 mph SE6.4 kmh SE 7.1 mph11.4 kmh 30.16 in1021.3 mb 0.00 in0.0 mm 0.00 in0.0 mm 0.00 in0.0 mm
10:45 AM 88.9°F31.6°C 73.8°F23.2°C 61% 10.0 mph ESE16.1 kmh ESE 11.1 mph17.9 kmh 30.15 in1021.0 mb 0.00 in0.0 mm 0.00 in0.0 mm 0.00 in0.0 mm
10:30 AM 88.1°F31.2°C 73.0°F22.8°C 61% 5.0 mph ESE8.0 kmh ESE 7.1 mph11.4 kmh 30.15 in1021.0 mb 0.00 in0.0 mm 0.00 in0.0 mm 0.00 in0.0 mm
10:15 AM 87.9°F31.1°C 72.8°F22.7°C 61% 1.0 mph ESE1.6 kmh ESE 4.0 mph6.4 kmh 30.15 in1021.0 mb 0.00 in0.0 mm 0.00 in0.0 mm 0.00 in0.0 mm
10:00 AM 87.2°F30.7°C 73.6°F23.1°C 64% 2.0 mph NE3.2 kmh NE 10.1 mph16.3 kmh 30.15 in1021.0 mb 0.00 in0.0 mm 0.00 in0.0 mm 0.00 in0.0 mm
09:45 AM 86.4°F30.2°C 73.3°F22.9°C 65% 2.0 mph NNE3.2 kmh NNE 7.1 mph11.4 kmh 30.15 in1021.0 mb 0.00 in0.0 mm 0.00 in0.0 mm 0.00 in0.0 mm
09:30 AM 85.8°F29.9°C 73.6°F23.1°C 67% 6.0 mph E9.7 kmh E 11.1 mph17.9 kmh 30.14 in1020.7 mb 0.00 in0.0 mm 0.00 in0.0 mm 0.00 in0.0 mm
09:15 AM 85.0°F29.4°C 73.7°F23.2°C 69% Calm Calm 10.1 mph16.3 kmh 30.15 in1021.0 mb 0.00 in0.0 mm 0.00 in0.0 mm 0.00 in0.0 mm
09:00 AM 83.9°F28.8°C 76.3°F24.6°C 78% 3.0 mph ESE4.8 kmh ESE 5.1 mph8.2 kmh 30.14 in1020.7 mb 0.00 in0.0 mm 0.00 in0.0 mm 0.00 in0.0 mm
08:45 AM 82.9°F28.3°C 76.9°F24.9°C 82% Calm Calm 1.0 mph1.6 kmh 30.14 in1020.7 mb 0.00 in0.0 mm 0.00 in0.0 mm 0.00 in0.0 mm
08:30 AM 81.6°F27.6°C 76.7°F24.8°C 85% 1.0 mph SE1.6 kmh SE 4.0 mph6.4 kmh 30.14 in1020.7 mb 0.00 in0.0 mm 0.00 in0.0 mm 0.00 in0.0 mm
08:15 AM 80.3°F26.8°C 76.8°F24.9°C 89% Calm Calm 5.1 mph8.2 kmh 30.14 in1020.7 mb 0.00 in0.0 mm 0.00 in0.0 mm 0.00 in0.0 mm
08:00 AM 78.8°F26.0°C 76.3°F24.6°C 92% 3.0 mph ENE4.8 kmh ENE 4.0 mph6.4 kmh 30.13 in1020.3 mb 0.00 in0.0 mm 0.00 in0.0 mm 0.00 in0.0 mm
07:45 AM 77.9°F25.5°C 76.0°F24.4°C 94% 2.0 mph ENE3.2 kmh ENE 3.0 mph4.8 kmh 30.13 in1020.3 mb 0.00 in0.0 mm 0.00 in0.0 mm 0.00 in0.0 mm
07:30 AM 77.2°F25.1°C 75.7°F24.3°C 95% 2.0 mph ENE3.2 kmh ENE 2.0 mph3.2 kmh 30.13 in1020.3 mb 0.00 in0.0 mm 0.00 in0.0 mm 0.00 in0.0 mm
07:15 AM 76.8°F24.9°C 75.3°F24.1°C 95% 3.0 mph NNE4.8 kmh NNE 6.1 mph9.8 kmh 30.12 in1020.0 mb 0.00 in0.0 mm 0.00 in0.0 mm 0.00 in0.0 mm
07:00 AM 76.6°F24.8°C 75.1°F23.9°C 95% Calm Calm 4.0 mph6.4 kmh 30.11 in1019.6 mb 0.00 in0.0 mm 0.00 in0.0 mm 0.00 in0.0 mm
06:45 AM 76.6°F24.8°C 75.1°F23.9°C 95% 2.0 mph NE3.2 kmh NE 3.0 mph4.8 kmh 30.11 in1019.6 mb 0.00 in0.0 mm 0.00 in0.0 mm 0.00 in0.0 mm
06:30 AM 76.8°F24.9°C 75.3°F24.1°C 95% Calm Calm 5.1 mph8.2 kmh 30.12 in1020.0 mb 0.00 in0.0 mm 0.00 in0.0 mm 0.00 in0.0 mm
06:15 AM 77.2°F25.1°C 75.3°F24.1°C 94% 3.0 mph NE4.8 kmh NE 3.0 mph4.8 kmh 30.11 in1019.6 mb 0.00 in0.0 mm 0.00 in0.0 mm 0.00 in0.0 mm
06:00 AM 77.9°F25.5°C 75.4°F24.1°C 92% 1.0 mph N1.6 kmh N 5.1 mph8.2 kmh 30.11 in1019.6 mb 0.00 in0.0 mm 0.00 in0.0 mm 0.00 in0.0 mm
05:45 AM 78.2°F25.7°C 75.0°F23.9°C 90% 3.0 mph NE4.8 kmh NE 5.1 mph8.2 kmh 30.10 in1019.3 mb 0.00 in0.0 mm 0.00 in0.0 mm 0.00 in0.0 mm
05:30 AM 78.6°F25.9°C 75.4°F24.1°C 90% 3.0 mph NE4.8 kmh NE 3.0 mph4.8 kmh 30.10 in1019.3 mb 0.00 in0.0 mm 0.00 in0.0 mm 0.00 in0.0 mm
05:15 AM 78.6°F25.9°C 75.4°F24.1°C 90% 1.0 mph NE1.6 kmh NE 4.0 mph6.4 kmh 30.09 in1019.0 mb 0.00 in0.0 mm 0.00 in0.0 mm 0.00 in0.0 mm
05:00 AM 78.6°F25.9°C 75.4°F24.1°C 90% 2.0 mph NNE3.2 kmh NNE 3.0 mph4.8 kmh 30.08 in1018.6 mb 0.00 in0.0 mm 0.00 in0.0 mm 0.00 in0.0 mm
04:45 AM 78.4°F25.8°C 75.6°F24.2°C 91% 3.0 mph NNE4.8 kmh NNE 4.0 mph6.4 kmh 30.08 in1018.6 mb 0.00 in0.0 mm 0.00 in0.0 mm 0.00 in0.0 mm
04:30 AM 78.4°F25.8°C 75.2°F24.0°C 90% Calm Calm -- 30.08 in1018.6 mb 0.00 in0.0 mm 0.00 in0.0 mm 0.00 in0.0 mm
04:15 AM 78.8°F26.0°C 75.3°F24.1°C 89% Calm Calm -- 30.08 in1018.6 mb 0.00 in0.0 mm 0.00 in0.0 mm 0.00 in0.0 mm
04:00 AM 79.1°F26.2°C 75.2°F24.0°C 88% Calm Calm -- 30.08 in1018.6 mb 0.00 in0.0 mm 0.00 in0.0 mm 0.00 in0.0 mm
03:45 AM 79.3°F26.3°C 75.4°F24.1°C 88% Calm Calm 1.0 mph1.6 kmh 30.08 in1018.6 mb 0.00 in0.0 mm 0.00 in0.0 mm 0.00 in0.0 mm
03:30 AM 79.5°F26.4°C 75.6°F24.2°C 88% Calm Calm 2.0 mph3.2 kmh 30.08 in1018.6 mb 0.00 in0.0 mm 0.00 in0.0 mm 0.00 in0.0 mm
03:15 AM 79.3°F26.3°C 75.8°F24.3°C 89% 1.0 mph NE1.6 kmh NE 1.0 mph1.6 kmh 30.08 in1018.6 mb 0.00 in0.0 mm 0.00 in0.0 mm 0.00 in0.0 mm
03:00 AM 79.0°F26.1°C 75.5°F24.2°C 89% Calm Calm 2.0 mph3.2 kmh 30.08 in1018.6 mb 0.00 in0.0 mm 0.00 in0.0 mm 0.00 in0.0 mm
02:45 AM 78.8°F26.0°C 75.3°F24.1°C 89% Calm Calm -- 30.07 in1018.3 mb 0.00 in0.0 mm 0.00 in0.0 mm 0.00 in0.0 mm
02:30 AM 79.0°F26.1°C 75.1°F23.9°C 88% Calm Calm 1.0 mph1.6 kmh 30.07 in1018.3 mb 0.00 in0.0 mm 0.00 in0.0 mm 0.00 in0.0 mm
02:15 AM 79.3°F26.3°C 75.1°F23.9°C 87% Calm Calm -- 30.07 in1018.3 mb 0.00 in0.0 mm 0.00 in0.0 mm 0.00 in0.0 mm
02:00 AM 79.3°F26.3°C 75.4°F24.1°C 88% Calm Calm 2.0 mph3.2 kmh 30.07 in1018.3 mb 0.00 in0.0 mm 0.00 in0.0 mm 0.00 in0.0 mm
01:45 AM 79.5°F26.4°C 75.3°F24.1°C 87% Calm Calm -- 30.07 in1018.3 mb 0.00 in0.0 mm 0.00 in0.0 mm 0.00 in0.0 mm
01:30 AM 80.1°F26.7°C 75.5°F24.2°C 86% Calm Calm -- 30.08 in1018.6 mb 0.00 in0.0 mm 0.00 in0.0 mm 0.00 in0.0 mm
01:15 AM 80.4°F26.9°C 75.5°F24.2°C 85% Calm Calm -- 30.08 in1018.6 mb 0.00 in0.0 mm 0.00 in0.0 mm 0.00 in0.0 mm
01:00 AM 80.8°F27.1°C 75.9°F24.4°C 85% Calm Calm 1.0 mph1.6 kmh 30.08 in1018.6 mb 0.00 in0.0 mm 0.00 in0.0 mm 0.00 in0.0 mm
12:45 AM 81.2°F27.3°C 76.3°F24.6°C 85% 1.0 mph NE1.6 kmh NE 1.0 mph1.6 kmh 30.08 in1018.6 mb 0.00 in0.0 mm 0.00 in0.0 mm 0.00 in0.0 mm
12:30 AM 81.2°F27.3°C 76.3°F24.6°C 85% Calm Calm 3.0 mph4.8 kmh 30.08 in1018.6 mb 0.00 in0.0 mm 0.00 in0.0 mm 0.00 in0.0 mm
12:15 AM 81.2°F27.3°C 75.6°F24.2°C 83% Calm Calm -- 30.08 in1018.6 mb 0.00 in0.0 mm 0.00 in0.0 mm 0.00 in0.0 mm
12:00 AM 81.7°F27.6°C 75.3°F24.1°C 81% Calm Calm -- 30.08 in1018.6 mb 0.00 in0.0 mm 0.00 in0.0 mm 0.00 in0.0 mm